Arthur, Illinois
Current Conditions -  °F | °C
As of 8:53 AM on Wednesday 22 Oct 2014 (Local Time) from KMTO Reporting Station
Clear Clear  
Wind Chill: 39°   Ceiling: Unl
Heat Index: 42°   Visibility: 10mi
Dew Point: 38°   Wind: 5mph
Humidity: 85%   Direction: 70°ENE
Pressure: 30.33"   Gusts: NA
Location:  39.71°N, 88.47°W
Report Text: KMTO 221353Z AUTO 07004KT 10SM CLR 06/03 A3033 RMK AO2 SLP276 T00560033
Loading
Personal Weather Stations






























Interactive Weather Map
Tropical Storm Tracking
New forecast layout! Learn more

10-Day Weather Forecast

Advertisements
Track Severe Weather on mobile